ADDS METAR Data INFO
IDs: Format: Raw Decoded Include TAF

Data at: 0946 UTC 25 Jun 2018

KCGC 250935Z AUTO 00000KT 10SM CLR 22/22 A3006 RMK AO2
KCGC 250915Z AUTO 00000KT 10SM CLR 22/22 A3006 RMK AO2
KCGC 250855Z AUTO 00000KT 10SM CLR 22/22 A3005 RMK AO2
KCGC 250835Z AUTO 00000KT 10SM CLR 22/22 A3005 RMK AO2
KCGC 250815Z AUTO 00000KT 10SM CLR 22/22 A3004 RMK AO2
KCGC 250755Z AUTO 00000KT 10SM CLR 22/22 A3004 RMK AO2
KCGC 250735Z AUTO 00000KT 10SM CLR 23/22 A3004 RMK AO2
KCGC 250715Z AUTO 00000KT 10SM CLR 23/22 A3005 RMK AO2
KCGC 250655Z AUTO 00000KT 10SM CLR 23/22 A3005 RMK AO2
KCGC 250635Z AUTO 00000KT 10SM CLR 23/22 A3005 RMK AO2
KCGC 250615Z AUTO 00000KT 10SM CLR 23/22 A3005 RMK AO2
KCGC 250555Z AUTO 00000KT 10SM CLR 23/22 A3006 RMK AO2
KCGC 250535Z AUTO 00000KT 10SM CLR 23/22 A3007 RMK AO2
KCGC 250515Z AUTO 00000KT 10SM CLR 23/22 A3007 RMK AO2
KCGC 250455Z AUTO 00000KT 10SM CLR 24/22 A3007 RMK AO2
KCGC 250435Z AUTO 00000KT 10SM CLR 24/22 A3008 RMK AO2
KCGC 250415Z AUTO 00000KT 10SM CLR 23/22 A3008 RMK AO2
KCGC 250355Z AUTO 00000KT 10SM CLR 24/22 A3009 RMK AO2
KCGC 250335Z AUTO 00000KT 10SM CLR 24/22 A3009 RMK AO2 LTG DSNT W
KCGC 250315Z AUTO 00000KT 10SM CLR 24/22 A3010 RMK AO2 LTG DSNT W
KCGC 250255Z AUTO 00000KT 10SM -RA CLR 25/22 A3010 RMK AO2 LTG DSNT W
KCGC 250235Z AUTO 00000KT 10SM CLR 25/22 A3010 RMK AO2 LTG DSNT W AND NW
KCGC 250215Z AUTO 12004KT 10SM CLR 25/22 A3010 RMK AO2 LTG DSNT S AND NW
KCGC 250155Z AUTO 00000KT 10SM CLR 24/22 A3009 RMK AO2 LTG DSNT NW
KCGC 250135Z AUTO 00000KT 10SM CLR 25/22 A3008 RMK AO2 LTG DSNT NW
KCGC 250115Z AUTO 00000KT 10SM CLR 25/22 A3006 RMK AO2 LTG DSNT N S AND NW
KCGC 250055Z AUTO 00000KT 10SM CLR 25/22 A3006 RMK AO2 LTG DSNT N S AND W
KCGC 250035Z AUTO 12003KT 10SM VCTS SCT050 SCT065 25/22 A3005 RMK AO2 LTG DSNT N NE AND S
KCGC 250015Z AUTO 00000KT 10SM TS SCT049 SCT055 SCT095 25/22 A3006 RMK AO2 LTG DSNT ALQS
KCGC 242355Z AUTO 13004KT 10SM -TSRA SCT032 BKN047 BKN055 25/22 A3006 RMK AO2 LTG DSNT ALQS
KCGC 242335Z AUTO 13013G16KT 10SM VCTS SCT031 BKN042 OVC085 27/21 A3006 RMK AO2 LTG DSNT N NE AND S
KCGC 242315Z AUTO 13009G15KT 100V160 10SM SCT060 33/23 A3004 RMK AO2 LTG DSNT N NE AND S
KCGC 242255Z AUTO 36003KT 10SM CLR 32/23 A3001 RMK AO2 LTG DSNT NE THRU S
KCGC 242235Z AUTO 29003KT 10SM VCTS CLR 32/23 A3000 RMK AO2 LTG DSNT NE THRU S
KCGC 242215Z AUTO 32008KT 10SM CLR 33/23 A2998 RMK AO2 LTG DSNT NE THRU S
KCGC 242155Z AUTO 31006KT 10SM CLR 32/24 A2999 RMK AO2 LTG DSNT NE THRU S
KCGC 242135Z AUTO 33006KT 10SM SCT042 32/24 A2999 RMK AO2 LTG DSNT SE AND S
KCGC 242115Z AUTO 30005KT 10SM CLR 33/24 A2999 RMK AO2 LTG DSNT SE AND S
KCGC 242055Z AUTO 29006KT 10SM CLR 33/24 A3000 RMK AO2 LTG DSNT SE AND S
KCGC 242035Z AUTO 31006KT 10SM CLR 32/24 A3000 RMK AO2 LTG DSNT SE AND S
KCGC 242015Z AUTO 30010G14KT 10SM CLR 32/25 A3001 RMK AO2 LTG DSNT E THRU S
KCGC 241955Z AUTO 29008KT 10SM CLR 32/25 A3001 RMK AO2 LTG DSNT N S AND NW
KCGC 241935Z AUTO 29008G15KT 10SM CLR 32/25 A3001 RMK AO2 LTG DSNT N AND NW
KCGC 241915Z AUTO 28008KT 10SM CLR 32/25 A3001 RMK AO2 LTG DSNT N AND S
KCGC 241855Z AUTO 30006KT 10SM CLR 32/25 A3002 RMK AO2 LTG DSNT S
KCGC 241835Z AUTO 30006G14KT 10SM CLR 32/25 A3003 RMK AO2
KCGC 241815Z AUTO 29006KT 10SM CLR 32/25 A3004 RMK AO2
KCGC 241755Z AUTO 27008KT 10SM CLR 32/25 A3004 RMK AO2
KCGC 241735Z AUTO 31003KT 10SM CLR 32/24 A3005 RMK AO2
KCGC 241715Z AUTO 25005KT 10SM CLR 32/24 A3006 RMK AO2
KCGC 241655Z AUTO 29006KT 10SM CLR 32/23 A3006 RMK AO2
KCGC 241635Z AUTO 26005KT 10SM CLR 31/23 A3007 RMK AO2
KCGC 241615Z AUTO 32003KT 10SM CLR 32/23 A3007 RMK AO2
KCGC 241555Z AUTO 27003KT 10SM CLR 31/23 A3007 RMK AO2
KCGC 241535Z AUTO 31003KT 10SM SCT031 30/23 A3007 RMK AO2
KCGC 241515Z AUTO 32003KT 10SM SCT031 31/23 A3008 RMK AO2
KCGC 241455Z AUTO 28003KT 10SM SCT027 31/23 A3007 RMK AO2
KCGC 241435Z AUTO 30003KT 10SM SCT029 SCT034 30/23 A3007 RMK AO2
KCGC 241415Z AUTO 32004KT 10SM SCT029 30/23 A3007 RMK AO2
KCGC 241355Z AUTO 32004KT 10SM CLR 30/23 A3007 RMK AO2
KCGC 241335Z AUTO 28005KT 10SM SCT024 SCT028 SCT034 29/24 A3007 RMK AO2
KCGC 241315Z AUTO 27004KT 10SM SCT022 30/25 A3006 RMK AO2
KCGC 241255Z AUTO 00000KT 10SM CLR 28/25 A3006 RMK AO2
KCGC 241235Z AUTO 00000KT 10SM SCT025 SCT030 27/25 A3006 RMK AO2 LTG DSNT S
KCGC 241215Z AUTO 00000KT 10SM CLR 26/24 A3006 RMK AO2
KCGC 241155Z AUTO 00000KT 1 1/2SM BR VV007 25/24 A3005 RMK AO2
KCGC 241135Z AUTO 00000KT 1 1/4SM BR VV007 25/23 A3004 RMK AO2
KCGC 241115Z AUTO 00000KT 1SM BR VV007 24/23 A3004 RMK AO2
KCGC 241055Z AUTO 00000KT 1 1/2SM BR VV007 23/23 A3003 RMK AO2 VIS 3/4V5
KCGC 241035Z AUTO 00000KT 3/4SM BR VV005 23/23 A3002 RMK AO2
KCGC 241015Z AUTO 00000KT 3SM BR CLR 23/23 A3001 RMK AO2
KCGC 240955Z AUTO 00000KT 2SM BR CLR 23/23 A3001 RMK AO2 VIS 1 1/4V5
KCGC 240935Z AUTO 00000KT 1 1/4SM BR VV007 23/23 A3001 RMK AO2
KCGC 240915Z AUTO 00000KT 10SM CLR 24/23 A3000 RMK AO2
KCGC 240855Z AUTO 00000KT 1 1/2SM BR VV007 23/23 A3000 RMK AO2
KCGC 240835Z AUTO 00000KT 2SM BR CLR 23/23 A3000 RMK AO2 VIS 3/4V5
KCGC 240815Z AUTO 00000KT 3SM BR CLR 24/23 A3000 RMK AO2
KCGC 240755Z AUTO 00000KT 1 3/4SM BR VV007 24/23 A3000 RMK AO2
KCGC 240735Z AUTO 00000KT 4SM BR CLR 25/23 A3000 RMK AO2
KCGC 240715Z AUTO 00000KT 2SM BR CLR 24/23 A3000 RMK AO2
KCGC 240655Z AUTO 00000KT 5SM BR SCT025 SCT040 25/23 A3001 RMK AO2
KCGC 240635Z AUTO 00000KT 7SM SCT023 SCT028 SCT036 25/23 A3001 RMK AO2
KCGC 240615Z AUTO 00000KT 2 1/2SM BR SCT029 SCT034 25/23 A3002 RMK AO2 VIS 1 1/4V5
KCGC 240555Z AUTO 00000KT 7SM SCT026 SCT032 25/23 A3002 RMK AO2
KCGC 240535Z AUTO 00000KT 7SM CLR 25/23 A3003 RMK AO2
KCGC 240515Z AUTO 00000KT 10SM SCT028 25/23 A3003 RMK AO2
KCGC 240455Z AUTO 00000KT 10SM CLR 25/23 A3003 RMK AO2
KCGC 240435Z AUTO 00000KT 10SM CLR 25/24 A3003 RMK AO2
KCGC 240415Z AUTO 00000KT 10SM CLR 26/23 A3003 RMK AO2
KCGC 240355Z AUTO 00000KT 4SM BR CLR 25/24 A3002 RMK AO2
KCGC 240335Z AUTO 00000KT 4SM BR CLR 26/24 A3003 RMK AO2
KCGC 240315Z AUTO 00000KT 10SM CLR 26/24 A3002 RMK AO2
KCGC 240255Z AUTO 00000KT 10SM CLR 27/24 A3002 RMK AO2
KCGC 240235Z AUTO 00000KT 5SM BR CLR 26/24 A3001 RMK AO2
KCGC 240215Z AUTO 00000KT 10SM CLR 27/24 A3001 RMK AO2
KCGC 240155Z AUTO 00000KT 10SM CLR 27/24 A3001 RMK AO2
KCGC 240135Z AUTO 00000KT 10SM CLR 27/24 A3000 RMK AO2
KCGC 240115Z AUTO 00000KT 7SM CLR 27/24 A3000 RMK AO2
KCGC 240055Z AUTO 00000KT 10SM CLR 28/24 A3000 RMK AO2
KCGC 240035Z AUTO 26004KT 10SM SCT025 28/24 A3000 RMK AO2
KCGC 240015Z AUTO 25003KT 10SM CLR 29/23 A3000 RMK AO2
KCGC 232355Z AUTO 26004KT 10SM CLR 30/23 A2999 RMK AO2
KCGC 232335Z AUTO 26004KT 10SM CLR 30/23 A2999 RMK AO2 LTG DSNT S
KCGC 232315Z AUTO 29005KT 10SM CLR 30/23 A2999 RMK AO2
KCGC 232255Z AUTO 27005KT 10SM CLR 31/23 A2999 RMK AO2
KCGC 232235Z AUTO 29006KT 10SM CLR 31/23 A2998 RMK AO2
KCGC 232215Z AUTO 27008KT 10SM CLR 31/23 A2998 RMK AO2
KCGC 232155Z AUTO 28008KT 10SM CLR 31/24 A2998 RMK AO2